createdAt,value
2018-07-12T00:00:53.888Z,3.22
2018-07-12T00:01:58.332Z,2.60
2018-07-12T00:03:02.810Z,2.92
2018-07-12T00:04:07.598Z,2.65
2018-07-12T00:05:12.555Z,2.67
2018-07-12T00:06:17.037Z,2.65
2018-07-12T00:07:21.239Z,2.90
2018-07-12T00:08:25.717Z,2.97
2018-07-12T00:09:30.199Z,2.90
2018-07-12T00:10:34.667Z,3.05
2018-07-12T00:11:39.111Z,3.20
2018-07-12T00:12:43.568Z,2.97
2018-07-12T00:13:48.008Z,2.97
2018-07-12T00:14:52.480Z,2.80
2018-07-12T00:15:56.908Z,3.50
2018-07-12T00:17:01.365Z,2.78
2018-07-12T00:18:05.858Z,3.42
2018-07-12T00:19:10.328Z,2.75
2018-07-12T00:20:14.819Z,3.80
2018-07-12T00:21:19.240Z,3.10
2018-07-12T00:22:23.728Z,2.78
2018-07-12T00:23:28.224Z,3.22
2018-07-12T00:24:32.730Z,3.42
2018-07-12T00:25:36.964Z,3.33
2018-07-12T00:26:41.479Z,3.67
2018-07-12T00:27:45.948Z,3.35
2018-07-12T00:28:50.400Z,2.97
2018-07-12T00:29:54.886Z,2.95
2018-07-12T00:30:59.353Z,2.90
2018-07-12T00:32:03.818Z,2.70
2018-07-12T00:33:08.312Z,3.42
2018-07-12T00:34:12.777Z,3.15
2018-07-12T00:35:17.813Z,3.40
2018-07-12T00:36:23.749Z,3.42
2018-07-12T00:37:28.284Z,3.67
2018-07-12T00:38:32.724Z,3.55
2018-07-12T00:39:37.209Z,3.80
2018-07-12T00:40:41.689Z,4.40
2018-07-12T00:41:46.144Z,3.70
2018-07-12T00:42:50.730Z,4.22
2018-07-12T00:43:55.172Z,3.87
2018-07-12T00:44:59.415Z,3.97
2018-07-12T00:46:03.918Z,3.92
2018-07-12T00:47:08.392Z,4.40
2018-07-12T00:48:12.848Z,2.75
2018-07-12T00:49:17.342Z,4.03
2018-07-12T00:50:21.814Z,3.78
2018-07-12T00:51:26.266Z,3.85
2018-07-12T00:52:30.741Z,4.10
2018-07-12T00:53:35.215Z,3.95
2018-07-12T00:54:39.705Z,3.53
2018-07-12T00:55:44.187Z,3.90
2018-07-12T00:56:48.635Z,4.12
2018-07-12T00:57:53.120Z,3.28
2018-07-12T00:58:57.588Z,3.83
2018-07-12T01:00:02.081Z,3.60
2018-07-12T01:01:06.555Z,3.10
2018-07-12T01:02:10.577Z,2.95
2018-07-12T01:03:15.382Z,3.35
2018-07-12T01:04:19.852Z,3.50
2018-07-12T01:05:25.214Z,2.90
2018-07-12T01:06:30.238Z,3.62
2018-07-12T01:07:35.237Z,3.30
2018-07-12T01:08:39.689Z,3.65
2018-07-12T01:09:44.155Z,3.45
2018-07-12T01:10:48.641Z,3.70
2018-07-12T01:11:53.117Z,3.30
2018-07-12T01:12:57.661Z,3.30
2018-07-12T01:14:02.201Z,3.30
2018-07-12T01:15:06.697Z,3.47
2018-07-12T01:16:11.169Z,3.17
2018-07-12T01:17:15.651Z,3.53
2018-07-12T01:18:20.135Z,3.60
2018-07-12T01:19:24.652Z,3.28
2018-07-12T01:20:29.140Z,3.50
2018-07-12T01:21:33.618Z,3.40
2018-07-12T01:22:38.065Z,3.60
2018-07-12T01:23:42.549Z,3.78
2018-07-12T01:24:47.041Z,4.00
2018-07-12T01:25:51.528Z,4.45
2018-07-12T01:26:55.973Z,3.55
2018-07-12T01:28:00.469Z,3.90
2018-07-12T01:29:04.932Z,3.70
2018-07-12T01:30:09.382Z,4.30
2018-07-12T01:31:13.845Z,3.78
2018-07-12T01:32:18.332Z,3.72
2018-07-12T01:33:22.827Z,3.80
2018-07-12T01:34:27.284Z,4.47
2018-07-12T01:35:31.772Z,4.10
2018-07-12T01:36:36.276Z,4.43
2018-07-12T01:37:41.264Z,3.53
2018-07-12T01:38:46.272Z,4.15
2018-07-12T01:39:50.696Z,4.35
2018-07-12T01:40:55.165Z,4.15
2018-07-12T01:41:59.644Z,3.58
2018-07-12T01:43:04.121Z,3.92
2018-07-12T01:44:08.574Z,4.25
2018-07-12T01:45:13.067Z,3.80
2018-07-12T01:46:17.545Z,3.70
2018-07-12T01:47:22.041Z,4.30
2018-07-12T01:48:26.493Z,3.22
2018-07-12T01:49:30.951Z,3.92
2018-07-12T01:50:35.412Z,3.90
2018-07-12T01:51:39.839Z,4.62
2018-07-12T01:52:44.277Z,4.20
2018-07-12T01:53:48.729Z,3.35
2018-07-12T01:54:53.216Z,4.30
2018-07-12T01:55:57.709Z,3.85
2018-07-12T01:57:02.159Z,4.20
2018-07-12T01:58:06.668Z,4.45
2018-07-12T01:59:11.106Z,4.40
2018-07-12T02:00:15.545Z,4.62
2018-07-12T02:01:20.008Z,4.62
2018-07-12T02:02:24.532Z,3.72
2018-07-12T02:03:28.950Z,5.12
2018-07-12T02:04:33.417Z,4.43
2018-07-12T02:05:37.894Z,4.72
2018-07-12T02:06:42.334Z,4.68
2018-07-12T02:07:46.757Z,5.15
2018-07-12T02:08:51.922Z,4.80
2018-07-12T02:09:56.930Z,4.37
2018-07-12T02:11:01.397Z,5.57
2018-07-12T02:12:05.853Z,4.30
2018-07-12T02:13:10.340Z,5.43
2018-07-12T02:14:14.785Z,4.72
2018-07-12T02:15:19.244Z,5.60
2018-07-12T02:16:23.726Z,5.03
2018-07-12T02:17:28.152Z,5.85
2018-07-12T02:18:32.601Z,5.35
2018-07-12T02:19:37.041Z,5.10
2018-07-12T02:20:41.487Z,5.70
2018-07-12T02:21:45.965Z,5.10
2018-07-12T02:22:50.440Z,5.15
2018-07-12T02:23:54.924Z,4.85
2018-07-12T02:24:59.384Z,5.10
2018-07-12T02:26:03.838Z,4.50
2018-07-12T02:27:08.283Z,4.95
2018-07-12T02:28:12.737Z,5.00
2018-07-12T02:29:17.180Z,4.70
2018-07-12T02:30:21.660Z,5.10
2018-07-12T02:31:26.144Z,4.65
2018-07-12T02:32:30.680Z,5.12
2018-07-12T02:33:35.117Z,4.50
2018-07-12T02:34:39.582Z,5.53
2018-07-12T02:35:44.048Z,3.90
2018-07-12T02:36:48.498Z,5.40
2018-07-12T02:37:52.949Z,5.75
2018-07-12T02:38:57.417Z,4.10
2018-07-12T02:40:02.284Z,5.20
2018-07-12T02:41:07.280Z,4.78
2018-07-12T02:42:11.704Z,5.50
2018-07-12T02:43:16.205Z,5.30
2018-07-12T02:44:20.694Z,4.80
2018-07-12T02:45:25.167Z,4.93
2018-07-12T02:46:29.638Z,5.55
2018-07-12T02:47:34.060Z,4.53
2018-07-12T02:48:38.522Z,5.53
2018-07-12T02:49:42.999Z,5.20
2018-07-12T02:50:47.444Z,5.68
2018-07-12T02:51:51.928Z,7.05
2018-07-12T02:52:56.413Z,5.50
2018-07-12T02:54:00.833Z,5.93
2018-07-12T02:55:05.295Z,5.50
2018-07-12T02:56:09.760Z,5.45
2018-07-12T02:57:14.281Z,5.60
2018-07-12T02:58:18.746Z,5.95
2018-07-12T02:59:23.242Z,5.97
2018-07-12T03:00:27.713Z,5.60
2018-07-12T03:01:32.269Z,4.82
2018-07-12T03:02:36.940Z,4.90
2018-07-12T03:03:41.407Z,4.60
2018-07-12T03:04:45.895Z,6.05
2018-07-12T03:05:50.364Z,7.07
2018-07-12T03:06:54.932Z,5.97
2018-07-12T03:07:59.387Z,6.68
2018-07-12T03:09:03.608Z,6.25
2018-07-12T03:10:08.036Z,5.95
2018-07-12T03:11:12.881Z,5.87
2018-07-12T03:12:17.956Z,7.12
2018-07-12T03:13:22.437Z,6.85
2018-07-12T03:14:26.884Z,6.32
2018-07-12T03:15:31.366Z,6.07
2018-07-12T03:16:35.846Z,8.55
2018-07-12T03:17:40.286Z,6.35
2018-07-12T03:18:44.724Z,6.57
2018-07-12T03:19:49.176Z,6.00
2018-07-12T03:20:53.603Z,6.03
2018-07-12T03:21:58.081Z,6.72
2018-07-12T03:23:02.537Z,7.28
2018-07-12T03:24:06.964Z,6.05
2018-07-12T03:25:11.380Z,6.45
2018-07-12T03:26:15.870Z,6.55
2018-07-12T03:27:20.337Z,7.00
2018-07-12T03:28:24.815Z,5.85
2018-07-12T03:29:29.281Z,7.80
2018-07-12T03:30:33.720Z,6.95
2018-07-12T03:31:38.164Z,5.95
2018-07-12T03:32:42.636Z,6.05
2018-07-12T03:33:47.079Z,5.70
2018-07-12T03:34:51.574Z,6.55
2018-07-12T03:35:56.008Z,6.55
2018-07-12T03:37:00.524Z,6.35
2018-07-12T03:38:05.018Z,6.22
2018-07-12T03:39:09.447Z,6.22
2018-07-12T03:40:13.887Z,5.90
2018-07-12T03:41:18.380Z,7.15
2018-07-12T03:42:23.368Z,7.10
2018-07-12T03:43:27.933Z,6.95
2018-07-12T03:44:32.376Z,6.68
2018-07-12T03:45:37.619Z,7.15
2018-07-12T03:46:42.256Z,7.10
2018-07-12T03:47:47.135Z,5.70
2018-07-12T03:48:52.089Z,7.15
2018-07-12T03:49:57.031Z,6.82
2018-07-12T03:51:01.735Z,6.20
2018-07-12T03:52:06.766Z,6.22
2018-07-12T03:53:11.808Z,6.85
2018-07-12T03:54:16.644Z,6.40
2018-07-12T03:55:21.684Z,6.45
2018-07-12T03:56:26.718Z,7.12
2018-07-12T03:57:32.036Z,6.95
2018-07-12T03:58:36.973Z,7.37
2018-07-12T03:59:41.989Z,6.07
2018-07-12T04:00:47.067Z,6.32
2018-07-12T04:01:52.043Z,7.30
2018-07-12T04:02:57.066Z,7.25
2018-07-12T04:04:02.055Z,7.00
2018-07-12T04:05:07.152Z,7.40
2018-07-12T04:06:12.089Z,7.05
2018-07-12T04:07:17.085Z,7.85
2018-07-12T04:08:22.103Z,7.60
2018-07-12T04:09:27.116Z,7.22
2018-07-12T04:10:32.354Z,7.37
2018-07-12T04:11:37.461Z,7.05
2018-07-12T04:12:42.515Z,7.68
2018-07-12T04:13:47.662Z,7.30
2018-07-12T04:14:52.749Z,7.15
2018-07-12T04:15:57.880Z,7.20
2018-07-12T04:17:03.018Z,7.07
2018-07-12T04:18:07.927Z,7.20
2018-07-12T04:19:13.225Z,6.40
2018-07-12T04:20:18.910Z,7.10
2018-07-12T04:21:23.901Z,7.30
2018-07-12T04:22:29.454Z,6.50
2018-07-12T04:23:34.568Z,7.45
2018-07-12T04:24:39.770Z,6.90
2018-07-12T04:25:44.703Z,7.43
2018-07-12T04:26:49.939Z,6.80
2018-07-12T04:27:55.357Z,7.55
2018-07-12T04:29:01.074Z,7.57
2018-07-12T04:30:06.413Z,6.87
2018-07-12T04:31:11.417Z,8.55
2018-07-12T04:32:16.651Z,8.73
2018-07-12T04:33:21.591Z,7.68
2018-07-12T04:34:26.650Z,7.20
2018-07-12T04:35:31.818Z,8.10
2018-07-12T04:36:36.741Z,7.28
2018-07-12T04:37:41.535Z,8.05
2018-07-12T04:38:46.182Z,8.68
2018-07-12T04:39:50.649Z,9.30
2018-07-12T04:40:55.122Z,9.27
2018-07-12T04:41:59.564Z,8.55
2018-07-12T04:43:04.067Z,8.25
2018-07-12T04:44:08.584Z,8.85
2018-07-12T04:45:13.079Z,8.75
2018-07-12T04:46:17.561Z,9.90
2018-07-12T04:47:22.076Z,8.60
2018-07-12T04:48:26.586Z,9.18
2018-07-12T04:49:31.065Z,8.98
2018-07-12T04:50:35.506Z,8.73
2018-07-12T04:51:39.984Z,9.82
2018-07-12T04:52:44.501Z,9.88
2018-07-12T04:53:48.988Z,10.20
2018-07-12T04:54:53.496Z,10.57
2018-07-12T04:55:57.956Z,9.75
2018-07-12T04:57:02.452Z,11.05
2018-07-12T04:58:06.950Z,9.95
2018-07-12T04:59:11.676Z,10.63
2018-07-12T05:00:16.626Z,10.35
2018-07-12T05:01:21.184Z,12.07
2018-07-12T05:02:25.705Z,10.98
2018-07-12T05:03:30.217Z,10.77
2018-07-12T05:04:34.688Z,11.65
2018-07-12T05:05:39.186Z,11.25
2018-07-12T05:06:43.789Z,11.82
2018-07-12T05:07:48.279Z,10.80
2018-07-12T05:08:52.747Z,10.80
2018-07-12T05:09:57.244Z,12.18
2018-07-12T05:11:01.789Z,10.38
2018-07-12T05:12:06.296Z,12.82
2018-07-12T05:13:10.773Z,10.98
2018-07-12T05:14:15.278Z,11.15
2018-07-12T05:15:19.772Z,11.00
2018-07-12T05:16:24.302Z,12.30
2018-07-12T05:17:28.785Z,13.35
2018-07-12T05:18:33.280Z,12.25
2018-07-12T05:19:37.772Z,11.65
2018-07-12T05:20:42.325Z,10.90
2018-07-12T05:21:46.805Z,11.57
2018-07-12T05:22:51.281Z,12.27
2018-07-12T05:23:55.774Z,12.37
2018-07-12T05:25:00.233Z,12.90
2018-07-12T05:26:04.944Z,10.55
2018-07-12T05:27:09.530Z,12.07
2018-07-12T05:28:14.045Z,12.10
2018-07-12T05:29:18.606Z,13.50
2018-07-12T05:30:23.061Z,12.63
2018-07-12T05:31:28.304Z,13.68
2018-07-12T05:32:32.784Z,14.20
2018-07-12T05:33:37.299Z,12.00
2018-07-12T05:34:41.830Z,12.70
2018-07-12T05:35:47.549Z,12.25
2018-07-12T05:36:52.753Z,14.15
2018-07-12T05:37:58.496Z,14.05
2018-07-12T05:39:04.083Z,13.20
2018-07-12T05:40:10.606Z,12.90
2018-07-12T05:41:17.856Z,12.57
2018-07-12T05:42:23.579Z,13.70
2018-07-12T05:43:29.300Z,12.70
2018-07-12T05:44:35.007Z,13.18
2018-07-12T05:45:40.699Z,13.52
2018-07-12T05:46:46.554Z,13.98
2018-07-12T05:47:52.389Z,13.13
2018-07-12T05:48:58.661Z,11.80
2018-07-12T05:50:04.941Z,13.07
2018-07-12T05:51:10.885Z,11.50
2018-07-12T05:52:17.144Z,13.73
2018-07-12T05:53:23.444Z,12.75
2018-07-12T05:54:29.417Z,12.23
2018-07-12T05:55:35.704Z,13.32
2018-07-12T05:56:41.961Z,11.80
2018-07-12T05:57:48.252Z,13.65
2018-07-12T05:58:54.573Z,13.23
2018-07-12T06:00:00.582Z,12.55
2018-07-12T06:01:05.924Z,12.60
2018-07-12T06:02:15.265Z,13.02
2018-07-12T06:03:20.933Z,13.70
2018-07-12T06:04:26.929Z,13.02
2018-07-12T06:05:32.954Z,13.70
2018-07-12T06:06:39.160Z,13.13
2018-07-12T06:07:46.232Z,14.05
2018-07-12T06:08:52.582Z,14.73
2018-07-12T06:09:58.834Z,13.93
2018-07-12T06:11:05.109Z,13.85
2018-07-12T06:12:11.109Z,14.73
2018-07-12T06:13:17.382Z,13.38
2018-07-12T06:14:23.861Z,14.63
2018-07-12T06:15:30.113Z,15.60
2018-07-12T06:16:36.097Z,13.30
2018-07-12T06:17:42.156Z,14.55
2018-07-12T06:18:48.492Z,14.43
2018-07-12T06:19:54.942Z,13.18
2018-07-12T06:21:01.200Z,14.75
2018-07-12T06:22:07.456Z,14.05
2018-07-12T06:23:13.730Z,13.95
2018-07-12T06:24:20.059Z,14.05
2018-07-12T06:25:26.333Z,14.60
2018-07-12T06:26:32.576Z,14.18
2018-07-12T06:27:38.860Z,16.10
2018-07-12T06:28:45.161Z,16.00
2018-07-12T06:29:51.462Z,15.50
2018-07-12T06:30:57.925Z,15.65
2018-07-12T06:32:04.158Z,15.52
2018-07-12T06:33:10.176Z,15.48
2018-07-12T06:34:16.465Z,15.50
2018-07-12T06:35:22.925Z,16.27
2018-07-12T06:36:29.208Z,15.52
2018-07-12T06:37:35.440Z,16.73
2018-07-12T06:38:41.729Z,15.52
2018-07-12T06:39:47.688Z,17.27
2018-07-12T06:40:53.924Z,15.63
2018-07-12T06:41:59.906Z,15.85
2018-07-12T06:43:06.203Z,15.95
2018-07-12T06:44:12.976Z,17.58
2018-07-12T06:45:19.258Z,16.42
2018-07-12T06:46:25.265Z,16.90
2018-07-12T06:47:31.534Z,16.00
2018-07-12T06:48:37.799Z,16.30
2018-07-12T06:49:44.102Z,17.35
2018-07-12T06:50:50.377Z,18.37
2018-07-12T06:51:56.291Z,18.40
2018-07-12T06:53:02.560Z,18.00
2018-07-12T06:54:08.498Z,17.65
2018-07-12T06:55:14.505Z,19.20
2018-07-12T06:56:20.817Z,19.40
2018-07-12T06:57:27.174Z,18.48
2018-07-12T06:58:33.461Z,19.52
2018-07-12T06:59:40.377Z,18.40
2018-07-12T07:00:46.644Z,18.50
2018-07-12T07:01:52.920Z,19.83
2018-07-12T07:02:59.236Z,21.05
2018-07-12T07:04:05.217Z,18.62
2018-07-12T07:05:11.481Z,19.80
2018-07-12T07:06:17.811Z,19.33
2018-07-12T07:07:24.095Z,21.25
2018-07-12T07:08:30.359Z,19.65
2018-07-12T07:09:36.368Z,22.20
2018-07-12T07:10:42.643Z,20.10
2018-07-12T07:11:48.929Z,21.95
2018-07-12T07:12:54.838Z,21.37
2018-07-12T07:14:00.807Z,20.62
2018-07-12T07:15:07.129Z,22.27
2018-07-12T07:16:13.105Z,20.50
2018-07-12T07:17:19.401Z,21.95
2018-07-12T07:18:25.656Z,21.27
2018-07-12T07:19:31.970Z,21.85
2018-07-12T07:20:38.269Z,20.90
2018-07-12T07:21:44.511Z,22.15
2018-07-12T07:22:50.507Z,21.80
2018-07-12T07:23:56.518Z,22.50
2018-07-12T07:25:02.877Z,22.95
2018-07-12T07:26:08.522Z,22.75
2018-07-12T07:27:14.785Z,22.73
2018-07-12T07:28:21.080Z,22.13
2018-07-12T07:29:27.378Z,22.25
2018-07-12T07:30:33.680Z,20.02
2018-07-12T07:31:39.981Z,19.25
2018-07-12T07:32:46.248Z,20.05
2018-07-12T07:33:52.553Z,21.23
2018-07-12T07:34:58.482Z,20.58
2018-07-12T07:36:05.647Z,22.98
2018-07-12T07:37:11.966Z,20.17
2018-07-12T07:38:18.246Z,21.83
2018-07-12T07:39:24.579Z,21.23
2018-07-12T07:40:30.873Z,21.35
2018-07-12T07:41:37.160Z,20.95
2018-07-12T07:42:43.429Z,21.37
2018-07-12T07:43:49.737Z,20.48
2018-07-12T07:44:56.044Z,20.05
2018-07-12T07:46:02.039Z,21.42
2018-07-12T07:47:08.361Z,20.70
2018-07-12T07:48:14.705Z,18.92
2018-07-12T07:49:21.032Z,18.83
2018-07-12T07:50:27.513Z,20.37
2018-07-12T07:51:33.775Z,20.35
2018-07-12T07:52:40.922Z,20.25
2018-07-12T07:53:47.231Z,19.62
2018-07-12T07:54:53.530Z,19.30
2018-07-12T07:55:59.771Z,17.37
2018-07-12T07:57:05.885Z,19.73
2018-07-12T07:58:12.345Z,18.58
2018-07-12T07:59:18.649Z,19.70
2018-07-12T08:00:24.928Z,19.60
2018-07-12T08:01:30.923Z,20.62
2018-07-12T08:02:37.163Z,17.60
2018-07-12T08:03:43.540Z,18.60
2018-07-12T08:04:49.809Z,19.62
2018-07-12T08:05:55.555Z,18.77
2018-07-12T08:07:01.915Z,19.45
2018-07-12T08:08:08.280Z,19.98
2018-07-12T08:09:14.549Z,20.23
2018-07-12T08:10:20.593Z,18.02
2018-07-12T08:11:26.828Z,19.70
2018-07-12T08:12:32.824Z,18.90
2018-07-12T08:13:38.444Z,18.70
2018-07-12T08:14:44.743Z,17.15
2018-07-12T08:15:51.032Z,18.60
2018-07-12T08:16:57.298Z,18.25
2018-07-12T08:18:03.624Z,19.45
2018-07-12T08:19:09.595Z,17.23
2018-07-12T08:20:15.912Z,19.50
2018-07-12T08:21:22.688Z,19.77
2018-07-12T08:22:28.928Z,18.20
2018-07-12T08:23:35.047Z,20.27
2018-07-12T08:24:41.239Z,19.10
2018-07-12T08:25:46.904Z,19.17
2018-07-12T08:26:52.915Z,18.30
2018-07-12T08:27:59.529Z,19.50
2018-07-12T08:29:05.968Z,21.98
2018-07-12T08:30:12.269Z,20.33
2018-07-12T08:31:18.385Z,19.23
2018-07-12T08:32:24.525Z,18.77
2018-07-12T08:33:30.866Z,20.33
2018-07-12T08:34:37.053Z,21.45
2018-07-12T08:35:43.385Z,19.05
2018-07-12T08:36:49.326Z,19.02
2018-07-12T08:37:55.563Z,17.95
2018-07-12T08:39:01.824Z,19.92
2018-07-12T08:40:08.536Z,17.42
2018-07-12T08:41:14.528Z,19.83
2018-07-12T08:42:20.527Z,19.23
2018-07-12T08:43:27.012Z,19.25
2018-07-12T08:44:33.038Z,20.20
2018-07-12T08:45:39.331Z,18.52
2018-07-12T08:46:45.616Z,18.85
2018-07-12T08:47:51.636Z,19.77
2018-07-12T08:48:57.888Z,19.08
2018-07-12T08:50:03.835Z,19.33
2018-07-12T08:51:10.097Z,19.40
2018-07-12T08:52:16.346Z,18.73
2018-07-12T08:53:22.602Z,19.80
2018-07-12T08:54:28.241Z,17.48
2018-07-12T08:55:34.512Z,20.77
2018-07-12T08:56:40.814Z,19.25
2018-07-12T08:57:47.089Z,19.05
2018-07-12T08:58:53.328Z,19.37
2018-07-12T08:59:59.615Z,18.85
2018-07-12T09:01:05.987Z,18.90
2018-07-12T09:02:12.283Z,19.42
2018-07-12T09:03:18.560Z,18.62
2018-07-12T09:04:25.830Z,18.23
2018-07-12T09:05:32.627Z,21.00
2018-07-12T09:06:38.933Z,19.50
2018-07-12T09:07:45.210Z,19.52
2018-07-12T09:08:51.493Z,17.30
2018-07-12T09:09:57.828Z,20.20
2018-07-12T09:11:04.154Z,18.73
2018-07-12T09:12:10.433Z,19.48
2018-07-12T09:13:16.681Z,18.20
2018-07-12T09:14:22.984Z,20.30
2018-07-12T09:15:29.254Z,18.05
2018-07-12T09:16:35.265Z,18.00
2018-07-12T09:17:41.548Z,17.40
2018-07-12T09:18:47.847Z,18.92
2018-07-12T09:19:54.557Z,17.67
2018-07-12T09:21:01.613Z,16.85
2018-07-12T09:22:07.938Z,17.70
2018-07-12T09:23:14.220Z,18.75
2018-07-12T09:24:20.489Z,15.23
2018-07-12T09:25:26.737Z,17.25
2018-07-12T09:26:33.281Z,18.33
2018-07-12T09:27:39.541Z,18.98
2018-07-12T09:28:45.574Z,18.77
2018-07-12T09:29:51.859Z,17.98
2018-07-12T09:30:58.140Z,19.23
2018-07-12T09:32:04.446Z,16.60
2018-07-12T09:33:10.708Z,19.00
2018-07-12T09:34:17.023Z,20.15
2018-07-12T09:35:23.341Z,19.58
2018-07-12T09:36:29.648Z,18.42
2018-07-12T09:37:35.960Z,20.27
2018-07-12T09:38:41.863Z,21.00
2018-07-12T09:39:48.188Z,19.73
2018-07-12T09:40:54.656Z,21.25
2018-07-12T09:42:00.545Z,20.17
2018-07-12T09:43:06.569Z,22.45
2018-07-12T09:44:12.860Z,20.05
2018-07-12T09:45:19.163Z,19.90
2018-07-12T09:46:25.472Z,19.33
2018-07-12T09:47:31.772Z,18.30
2018-07-12T09:48:38.268Z,18.40
2018-07-12T09:49:44.539Z,17.70
2018-07-12T09:50:50.518Z,18.67
2018-07-12T09:51:56.517Z,17.98
2018-07-12T09:53:02.098Z,18.77
2018-07-12T09:54:08.098Z,18.12
2018-07-12T09:55:13.772Z,16.10
2018-07-12T09:56:21.187Z,16.42
2018-07-12T09:57:38.657Z,16.45
2018-07-12T09:58:44.323Z,15.52
2018-07-12T09:59:50.644Z,16.50
2018-07-12T10:00:56.690Z,16.05
2018-07-12T10:03:34.587Z,14.90
2018-07-12T10:04:40.662Z,15.57
2018-07-12T10:05:46.722Z,14.73
2018-07-12T10:06:52.761Z,15.65
2018-07-12T10:07:58.803Z,13.18
2018-07-12T10:09:04.159Z,13.10
2018-07-12T10:10:10.179Z,13.70
2018-07-12T10:11:15.922Z,14.05
2018-07-12T10:12:21.993Z,12.07
2018-07-12T10:13:28.052Z,12.75
2018-07-12T10:14:34.128Z,13.35
2018-07-12T10:15:40.155Z,13.80
2018-07-12T10:16:46.191Z,13.02
2018-07-12T10:17:51.973Z,13.90
2018-07-12T10:18:58.276Z,12.70
2018-07-12T10:20:03.957Z,13.27
2018-07-12T10:21:10.228Z,13.50
2018-07-12T10:22:17.145Z,13.05
2018-07-12T10:23:24.208Z,13.10
2018-07-12T10:24:30.477Z,12.20
2018-07-12T10:25:36.765Z,12.57
2018-07-12T10:26:43.073Z,13.00
2018-07-12T10:27:49.368Z,12.98
2018-07-12T10:28:55.658Z,12.70
2018-07-12T10:30:01.960Z,12.10
2018-07-12T10:31:08.253Z,12.00
2018-07-12T10:32:14.596Z,11.10
2018-07-12T10:33:20.891Z,13.07
2018-07-12T10:34:27.340Z,11.80
2018-07-12T10:35:33.454Z,11.30
2018-07-12T10:36:39.777Z,11.35
2018-07-12T10:37:46.053Z,11.80
2018-07-12T10:38:52.513Z,13.68
2018-07-12T10:39:58.816Z,12.77
2018-07-12T10:41:05.077Z,12.82
2018-07-12T10:42:11.370Z,12.70
2018-07-12T10:43:17.629Z,13.02
2018-07-12T10:44:23.917Z,11.38
2018-07-12T10:45:30.187Z,11.82
2018-07-12T10:46:36.215Z,11.25
2018-07-12T10:47:42.484Z,11.60
2018-07-12T10:48:48.783Z,10.30
2018-07-12T10:49:55.075Z,10.88
2018-07-12T10:51:01.359Z,11.80
2018-07-12T10:52:07.095Z,9.68
2018-07-12T10:53:13.420Z,10.10
2018-07-12T10:54:19.684Z,10.63
2018-07-12T10:55:25.936Z,10.35
2018-07-12T10:56:32.206Z,10.48
2018-07-12T10:57:39.631Z,9.50
2018-07-12T10:58:45.971Z,10.52
2018-07-12T10:59:52.212Z,9.65
2018-07-12T11:00:58.512Z,10.43
2018-07-12T11:02:06.109Z,10.85
2018-07-12T11:03:12.396Z,10.40
2018-07-12T11:04:18.690Z,10.70
2018-07-12T11:05:24.938Z,11.00
2018-07-12T11:06:31.262Z,10.10
2018-07-12T11:07:38.297Z,11.10
2018-07-12T11:08:44.577Z,10.73
2018-07-12T11:09:50.849Z,11.02
2018-07-12T11:10:57.103Z,9.98
2018-07-12T11:12:03.416Z,9.90
2018-07-12T11:13:08.994Z,9.85
2018-07-12T11:14:15.320Z,9.82
2018-07-12T11:15:22.336Z,10.65
2018-07-12T11:16:28.584Z,9.45
2018-07-12T11:17:34.880Z,9.98
2018-07-12T11:18:41.150Z,9.20
2018-07-12T11:19:47.032Z,8.98
2018-07-12T11:20:53.251Z,8.45
2018-07-12T11:21:59.241Z,8.85
2018-07-12T11:23:05.201Z,10.27
2018-07-12T11:24:11.432Z,8.50
2018-07-12T11:25:17.726Z,10.30
2018-07-12T11:26:23.732Z,10.07
2018-07-12T11:27:30.030Z,10.20
2018-07-12T11:28:36.281Z,9.55
2018-07-12T11:29:44.942Z,9.73
2018-07-12T11:30:51.892Z,9.10
2018-07-12T11:31:58.175Z,9.15
2018-07-12T11:33:03.768Z,9.48
2018-07-12T11:34:09.841Z,8.73
2018-07-12T11:35:16.168Z,9.27
2018-07-12T11:36:22.415Z,9.10
2018-07-12T11:37:28.881Z,9.70
2018-07-12T11:38:34.842Z,9.40
2018-07-12T11:39:41.116Z,9.35
2018-07-12T11:40:47.344Z,7.90
2018-07-12T11:41:53.582Z,8.13
2018-07-12T11:42:59.848Z,7.30
2018-07-12T11:44:06.171Z,7.57
2018-07-12T11:45:12.437Z,7.57
2018-07-12T11:46:18.680Z,8.43
2018-07-12T11:47:24.955Z,7.85
2018-07-12T11:48:31.230Z,7.28
2018-07-12T11:49:37.459Z,6.65
2018-07-12T11:50:43.924Z,7.05
2018-07-12T11:51:50.438Z,7.68
2018-07-12T11:52:56.776Z,6.93
2018-07-12T11:54:02.997Z,6.55
2018-07-12T11:55:09.309Z,7.45
2018-07-12T11:56:15.571Z,7.43
2018-07-12T11:57:21.832Z,7.45
2018-07-12T11:58:27.731Z,6.45
2018-07-12T11:59:33.976Z,6.55
2018-07-12T12:00:40.266Z,7.10
2018-07-12T12:01:46.667Z,6.60
2018-07-12T12:02:53.129Z,6.85
2018-07-12T12:03:59.445Z,5.85
2018-07-12T12:05:06.230Z,6.87
2018-07-12T12:06:14.695Z,6.20
2018-07-12T12:07:22.328Z,5.50
2018-07-12T12:08:29.195Z,5.25
2018-07-12T12:09:35.875Z,6.37
2018-07-12T12:10:42.668Z,5.50
2018-07-12T12:11:49.662Z,5.00
2018-07-12T12:12:55.846Z,4.70
2018-07-12T12:14:02.522Z,4.82
2018-07-12T12:15:09.087Z,4.43
2018-07-12T12:16:15.659Z,5.60
2018-07-12T12:17:21.890Z,4.32
2018-07-12T12:18:28.479Z,4.35
2018-07-12T12:19:35.285Z,4.25
2018-07-12T12:20:42.063Z,4.75
2018-07-12T12:21:49.056Z,4.78
2018-07-12T12:22:56.581Z,4.15
2018-07-12T12:24:03.356Z,4.25
2018-07-12T12:25:10.311Z,4.00
2018-07-12T12:26:18.210Z,4.05
2018-07-12T12:27:25.331Z,3.70
2018-07-12T12:28:33.426Z,4.20
2018-07-12T12:29:41.283Z,3.58
2018-07-12T12:30:49.456Z,3.30
2018-07-12T12:31:56.312Z,3.10
2018-07-12T12:33:03.092Z,3.25
2018-07-12T12:34:09.772Z,3.60
2018-07-12T12:35:16.744Z,3.87
2018-07-12T12:36:23.203Z,3.90
2018-07-12T12:37:29.864Z,3.45
2018-07-12T12:38:36.384Z,4.57
2018-07-12T12:39:42.583Z,3.23
2018-07-12T12:40:49.089Z,3.50
2018-07-12T12:41:55.568Z,5.40
2018-07-12T12:43:02.771Z,4.20
2018-07-12T12:44:10.487Z,3.20
2018-07-12T12:45:17.058Z,3.10
2018-07-12T12:46:23.395Z,3.30
2018-07-12T12:47:29.643Z,3.50
2018-07-12T12:48:36.035Z,4.50
2018-07-12T12:49:42.768Z,3.60
2018-07-12T12:50:49.077Z,2.77
2018-07-12T12:51:55.232Z,6.97
2018-07-12T12:53:01.604Z,3.43
2018-07-12T12:54:07.262Z,3.40
2018-07-12T12:55:13.204Z,2.80
2018-07-12T12:56:19.175Z,3.50
2018-07-12T12:57:25.112Z,3.10
2018-07-12T12:58:31.387Z,3.08
2018-07-12T12:59:37.324Z,2.80
2018-07-12T13:00:43.255Z,3.07
2018-07-12T13:01:49.197Z,3.43
2018-07-12T13:02:55.173Z,3.00
2018-07-12T13:04:01.108Z,3.13
2018-07-12T13:05:07.068Z,3.17
2018-07-12T13:06:13.279Z,3.35
2018-07-12T13:07:19.233Z,3.33
2018-07-12T13:08:25.211Z,3.07
2018-07-12T13:09:32.423Z,3.45
2018-07-12T13:10:37.993Z,3.53
2018-07-12T13:11:43.644Z,2.93
2018-07-12T13:12:49.583Z,3.20
2018-07-12T13:13:55.846Z,3.25
2018-07-12T13:15:01.848Z,3.17
2018-07-12T13:16:07.508Z,3.00
2018-07-12T13:17:12.760Z,3.27
2018-07-12T13:18:18.462Z,3.40
2018-07-12T13:19:24.446Z,3.90
2018-07-12T13:20:30.116Z,3.10
2018-07-12T13:21:35.770Z,3.37
2018-07-12T13:22:41.439Z,3.30
2018-07-12T13:23:47.411Z,3.60
2018-07-12T13:24:53.388Z,3.47
2018-07-12T13:25:58.697Z,4.33
2018-07-12T13:27:04.289Z,3.63
2018-07-12T13:28:10.708Z,3.63
2018-07-12T13:29:17.748Z,3.40
2018-07-12T13:30:25.090Z,3.30
2018-07-12T13:31:31.633Z,3.13
2018-07-12T13:32:37.809Z,4.00
2018-07-12T13:33:44.049Z,3.63
2018-07-12T13:34:50.753Z,3.27
2018-07-12T13:35:56.840Z,3.90
2018-07-12T13:37:03.373Z,3.40
2018-07-12T13:38:09.694Z,3.90
2018-07-12T13:39:15.830Z,2.93
2018-07-12T13:40:22.865Z,3.67
2018-07-12T13:41:28.928Z,3.60
2018-07-12T13:42:36.203Z,3.53
2018-07-12T13:43:43.703Z,3.30
2018-07-12T13:44:50.314Z,3.10
2018-07-12T13:45:57.882Z,2.93
2018-07-12T13:47:03.873Z,3.20
2018-07-12T13:48:09.773Z,3.63
2018-07-12T13:49:16.225Z,3.30
2018-07-12T13:50:22.348Z,3.13
2018-07-12T13:51:28.599Z,3.20
2018-07-12T13:52:34.983Z,3.40
2018-07-12T13:53:41.888Z,3.10
2018-07-12T13:54:48.651Z,4.22
2018-07-12T13:55:54.714Z,2.90
2018-07-12T13:57:00.852Z,3.30
2018-07-12T13:58:07.407Z,3.67
2018-07-12T13:59:13.915Z,3.60
2018-07-12T14:00:19.946Z,3.80
2018-07-12T14:01:26.734Z,4.60
2018-07-12T14:02:33.240Z,4.20
2018-07-12T14:03:39.525Z,3.83
2018-07-12T14:04:45.990Z,5.13
2018-07-12T14:05:52.298Z,3.37
2018-07-12T14:06:59.061Z,3.90
2018-07-12T14:08:05.399Z,3.60
2018-07-12T14:09:11.614Z,4.07
2018-07-12T14:10:18.065Z,4.13
2018-07-12T14:11:24.680Z,3.17
2018-07-12T14:12:30.690Z,3.20
2018-07-12T14:13:36.344Z,3.37
2018-07-12T14:14:44.661Z,3.73
2018-07-12T14:15:51.218Z,3.50
2018-07-12T14:16:57.837Z,4.23
2018-07-12T14:18:06.772Z,3.53
2018-07-12T14:19:13.793Z,2.90
2018-07-12T14:20:32.324Z,3.50
2018-07-12T14:22:00.810Z,3.03
2018-07-12T14:23:27.317Z,3.20
2018-07-12T14:24:49.505Z,2.80